Joy — V2EI9 — position and weather

sailwx.info

Track history (hours):
 
Tides and Currents Weather Stations Pressure Air Temp Water Temp Dewpoint Dewpoint Depression Visibility Wind Speed Wind Dir Waves Ship Positions

Joy

Last reported at 2016-Sep-21 09:30 UTC. Time now 2016-Sep-30 03:14 UTC.
Position N 36°52' W 009°35'.
Warning: this ship's position is 8 days out of date.

; draft 5.6 m.

Type: Cargo ship. MMSI: 305444000.

Date/timePositionNaut miles runAvg speedWind from/ knotsBaromVisibWave heightAir tempDewpointWater temp
2016-Sep-21 09:30N 36°52' W 009°35'6210.1
2016-Sep-21 03:20N 37°53' W 009°52'810.3
2016-Sep-21 02:32N 38°01' W 009°54'9510.1
2016-Sep-20 17:10N 39°36' W 010°06'  
2016-Sep-18 02:32N 49°12' W 004°55'1110.2
2016-Sep-18 01:26N 49°18' W 004°40'3712.0
2016-Sep-17 22:23N 49°37' W 003°52'1010.7
2016-Sep-17 21:27N 49°42' W 003°38'8 9.4
2016-Sep-17 20:33N 49°46' W 003°27'11 8.3
2016-Sep-17 19:16N 49°52' W 003°13'11310.1
2016-Sep-17 08:09N 50°26' W 000°26'4 7.3
2016-Sep-17 07:33N 50°28' W 000°19'18 9.3
2016-Sep-17 05:33N 50°33' E 000°09'5110.3
2016-Sep-17 00:33N 50°59' E 001°18'58 8.4
2016-Sep-16 17:33N 51°22' E 002°44'2110.4
2016-Sep-16 15:33N 51°24' E 003°17'21 6.9
2016-Sep-16 12:33N 51°19' E 003°50'11 3.7
2016-Sep-16 09:31N 51°08' E 003°47'0 0.0
2016-Sep-16 07:28N 51°08' E 003°47'0 0.0
2016-Sep-16 03:28N 51°08' E 003°47'0 0.0
2016-Sep-16 02:28N 51°08' E 003°47'0 0.0
2016-Sep-16 00:22N 51°08' E 003°47'0 0.0
2016-Sep-15 22:28N 51°08' E 003°47'0 0.0
2016-Sep-15 20:31N 51°08' E 003°47'0 0.0
2016-Sep-15 18:28N 51°08' E 003°47'0 0.0
2016-Sep-15 12:31N 51°08' E 003°47'0 0.0
2016-Sep-15 11:28N 51°08' E 003°47'0 0.0
2016-Sep-15 04:31N 51°08' E 003°47'0 0.0
2016-Sep-15 03:28N 51°08' E 003°47'0 0.0
2016-Sep-15 01:31N 51°08' E 003°47'0 0.0
2016-Sep-14 22:34N 51°08' E 003°47'0 0.0
2016-Sep-14 21:33N 51°08' E 003°47'0 0.0
2016-Sep-14 17:30N 51°08' E 003°47'1 0.7
2016-Sep-14 16:34N 51°08' E 003°46'1 0.2
2016-Sep-14 13:33N 51°08' E 003°46'0 0.0
2016-Sep-14 12:33N 51°08' E 003°46'0 0.0
2016-Sep-14 10:33N 51°08' E 003°46'0 0.0
2016-Sep-14 09:33N 51°08' E 003°46'0 0.0
2016-Sep-14 08:33N 51°08' E 003°46'0 0.0
2016-Sep-14 07:33N 51°08' E 003°46'0 0.0
2016-Sep-14 06:33N 51°08' E 003°46'0 0.0
2016-Sep-14 03:32N 51°08' E 003°46'0 0.0
2016-Sep-13 22:32N 51°08' E 003°46'0 0.0
2016-Sep-13 20:29N 51°08' E 003°46'0 0.0
2016-Sep-13 18:32N 51°08' E 003°46'0 0.0
2016-Sep-13 17:32N 51°08' E 003°46'0 0.0
2016-Sep-13 16:32N 51°08' E 003°46'0 0.0
2016-Sep-13 11:32N 51°08' E 003°46'0 0.0
2016-Sep-13 09:32N 51°08' E 003°46'0 0.0
2016-Sep-13 07:29N 51°08' E 003°46'0 0.0
2016-Sep-13 06:32N 51°08' E 003°46'0 0.0
2016-Sep-13 04:32N 51°08' E 003°46'0 0.0
2016-Sep-13 02:33N 51°08' E 003°46'0 0.0
2016-Sep-12 23:32N 51°08' E 003°46'0 0.0
2016-Sep-12 21:33N 51°08' E 003°46'0 0.0
2016-Sep-12 19:32N 51°08' E 003°46'0 0.0
2016-Sep-12 17:32N 51°08' E 003°46'0 0.0
2016-Sep-12 14:31N 51°08' E 003°46'0 0.0
2016-Sep-12 13:31N 51°08' E 003°46'0 0.0
2016-Sep-12 12:31N 51°08' E 003°46'1 1.2
2016-Sep-12 11:33N 51°09' E 003°47'7 7.1
2016-Sep-12 10:34N 51°15' E 003°50'20 6.7
2016-Sep-12 07:33N 51°30' E 003°28'1010.1
2016-Sep-12 06:33N 51°39' E 003°20'26 8.7
2016-Sep-12 03:33N 52°05' E 003°21'18 8.8
2016-Sep-12 01:33N 52°23' E 003°26'50 7.9
2016-Sep-11 19:13N 53°04' E 004°11'6 9.1
2016-Sep-11 18:33N 53°08' E 004°19'10 9.5
2016-Sep-11 17:32N 53°17' E 004°28'20 9.4
2016-Sep-11 15:25N 53°31' E 004°50'7 8.5
2016-Sep-11 14:33N 53°34' E 005°02'8 8.4
2016-Sep-11 13:34N 53°37' E 005°15'8 8.2
2016-Sep-11 12:33N 53°39' E 005°28'9 8.6
2016-Sep-11 11:33N 53°42' E 005°42'9 9.1
2016-Sep-11 10:33N 53°45' E 005°56'  
Track history (hours):
 
Tides and Currents Weather Stations Pressure Air Temp Water Temp Dewpoint Dewpoint Depression Visibility Wind Speed Wind Dir Waves Ship Positions

Joy

Last reported at 2016-Sep-21 09:30 UTC. Time now 2016-Sep-30 03:14 UTC.
Position N 36°52' W 009°35'.
Warning: this ship's position is 8 days out of date.

; draft 5.6 m.

Type: Cargo ship. MMSI: 305444000.

Date/timePositionNaut miles runAvg speedWind from/ knotsBaromVisibWave heightAir tempDewpointWater temp
2016-Sep-21 09:30N 36°52' W 009°35'6210.1
2016-Sep-21 03:20N 37°53' W 009°52'810.3
2016-Sep-21 02:32N 38°01' W 009°54'9510.1
2016-Sep-20 17:10N 39°36' W 010°06'  
2016-Sep-18 02:32N 49°12' W 004°55'1110.2
2016-Sep-18 01:26N 49°18' W 004°40'3712.0
2016-Sep-17 22:23N 49°37' W 003°52'1010.7
2016-Sep-17 21:27N 49°42' W 003°38'8 9.4
2016-Sep-17 20:33N 49°46' W 003°27'11 8.3
2016-Sep-17 19:16N 49°52' W 003°13'11310.1
2016-Sep-17 08:09N 50°26' W 000°26'4 7.3
2016-Sep-17 07:33N 50°28' W 000°19'18 9.3
2016-Sep-17 05:33N 50°33' E 000°09'5110.3
2016-Sep-17 00:33N 50°59' E 001°18'58 8.4
2016-Sep-16 17:33N 51°22' E 002°44'2110.4
2016-Sep-16 15:33N 51°24' E 003°17'21 6.9
2016-Sep-16 12:33N 51°19' E 003°50'11 3.7
2016-Sep-16 09:31N 51°08' E 003°47'0 0.0
2016-Sep-16 07:28N 51°08' E 003°47'0 0.0
2016-Sep-16 03:28N 51°08' E 003°47'0 0.0
2016-Sep-16 02:28N 51°08' E 003°47'0 0.0
2016-Sep-16 00:22N 51°08' E 003°47'0 0.0
2016-Sep-15 22:28N 51°08' E 003°47'0 0.0
2016-Sep-15 20:31N 51°08' E 003°47'0 0.0
2016-Sep-15 18:28N 51°08' E 003°47'0 0.0
2016-Sep-15 12:31N 51°08' E 003°47'0 0.0
2016-Sep-15 11:28N 51°08' E 003°47'0 0.0
2016-Sep-15 04:31N 51°08' E 003°47'0 0.0
2016-Sep-15 03:28N 51°08' E 003°47'0 0.0
2016-Sep-15 01:31N 51°08' E 003°47'0 0.0
2016-Sep-14 22:34N 51°08' E 003°47'0 0.0
2016-Sep-14 21:33N 51°08' E 003°47'0 0.0
2016-Sep-14 17:30N 51°08' E 003°47'1 0.7
2016-Sep-14 16:34N 51°08' E 003°46'1 0.2
2016-Sep-14 13:33N 51°08' E 003°46'0 0.0
2016-Sep-14 12:33N 51°08' E 003°46'0 0.0
2016-Sep-14 10:33N 51°08' E 003°46'0 0.0
2016-Sep-14 09:33N 51°08' E 003°46'0 0.0
2016-Sep-14 08:33N 51°08' E 003°46'0 0.0
2016-Sep-14 07:33N 51°08' E 003°46'0 0.0
2016-Sep-14 06:33N 51°08' E 003°46'0 0.0
2016-Sep-14 03:32N 51°08' E 003°46'0 0.0
2016-Sep-13 22:32N 51°08' E 003°46'0 0.0
2016-Sep-13 20:29N 51°08' E 003°46'0 0.0
2016-Sep-13 18:32N 51°08' E 003°46'0 0.0
2016-Sep-13 17:32N 51°08' E 003°46'0 0.0
2016-Sep-13 16:32N 51°08' E 003°46'0 0.0
2016-Sep-13 11:32N 51°08' E 003°46'0 0.0
2016-Sep-13 09:32N 51°08' E 003°46'0 0.0
2016-Sep-13 07:29N 51°08' E 003°46'0 0.0
2016-Sep-13 06:32N 51°08' E 003°46'0 0.0
2016-Sep-13 04:32N 51°08' E 003°46'0 0.0
2016-Sep-13 02:33N 51°08' E 003°46'0 0.0
2016-Sep-12 23:32N 51°08' E 003°46'0 0.0
2016-Sep-12 21:33N 51°08' E 003°46'0 0.0
2016-Sep-12 19:32N 51°08' E 003°46'0 0.0
2016-Sep-12 17:32N 51°08' E 003°46'0 0.0
2016-Sep-12 14:31N 51°08' E 003°46'0 0.0
2016-Sep-12 13:31N 51°08' E 003°46'0 0.0
2016-Sep-12 12:31N 51°08' E 003°46'1 1.2
2016-Sep-12 11:33N 51°09' E 003°47'7 7.1
2016-Sep-12 10:34N 51°15' E 003°50'20 6.7
2016-Sep-12 07:33N 51°30' E 003°28'1010.1
2016-Sep-12 06:33N 51°39' E 003°20'26 8.7
2016-Sep-12 03:33N 52°05' E 003°21'18 8.8
2016-Sep-12 01:33N 52°23' E 003°26'50 7.9
2016-Sep-11 19:13N 53°04' E 004°11'6 9.1
2016-Sep-11 18:33N 53°08' E 004°19'10 9.5
2016-Sep-11 17:32N 53°17' E 004°28'20 9.4
2016-Sep-11 15:25N 53°31' E 004°50'7 8.5
2016-Sep-11 14:33N 53°34' E 005°02'8 8.4
2016-Sep-11 13:34N 53°37' E 005°15'8 8.2
2016-Sep-11 12:33N 53°39' E 005°28'9 8.6
2016-Sep-11 11:33N 53°42' E 005°42'9 9.1
2016-Sep-11 10:33N 53°45' E 005°56'  

Dump ship's entire track history